Portada
METAR-TAF:

METAR-TAF

Aeroports :

Shell Mera, Equador

latitud: 01-30-19S, longitud: 078-03-46W, altitud: 1056 m

Observació

L'informe es va fer fa 13 minuts, a les 14:00 UTC
Vent 6 kt del Nord-Oest
Temperatura 19°C
Humitat 100%
Pressió 1019 hPa
Visibilitat: 2000 m
Escasses núvols a una alçada de 300 ft
Cel ennuvolat a una alçada de 2300 ft
Cel cobert a una alçada de 9000 ft
pluja

METAR: SESM 301400Z 32006KT 6000 2000NW -RA FEW003 BKN023 OVC090 19/19 Q1019 RMK A3011

Hora: 09:13 (14:13 UTC)


TAF: manca

Observacions i pronòstics meteorològics de més de 4000 aeroports (METAR i TAF).

Les estacions disponibles són els punts grocs i vermells al mapa.

Posi el ratolí al punt desitjat per veure el nom de l'estació.

Feu clic per veure les observacions i els pronòstics meteorològics.

Per canviar el mapa: feu clic els botons verds amb una creu de color negre per apropar; al botó verd amb un guió per allunyar la imatge; o en les fletxes verdes per a mapes adjacents.


METAR-TAF: